Neva Corners, Wisconsin
Current Conditions -  °F | °C
As of 6:15 AM on Friday 24 Oct 2014 (Local Time) from KAIG Reporting Station
Moderate Fog Moderate Fog  
Wind Chill:   Ceiling: 300
Heat Index:   Visibility: 0.25mi
Dew Point:   Wind: 6mph
Humidity: 100%   Direction: 250°WSW
Pressure: 30.01"   Gusts: NA
Location:  45.2445°N, 89.211°W
Report Text: KAIG 241115Z AUTO 25005KT 1/4SM FG OVC003 06/06 A3001 RMK AO2 T00560056
Loading
Personal Weather Stations






























Interactive Weather Map
Tropical Storm Tracking
New forecast layout! Learn more

10-Day Weather Forecast

Advertisements
Track Severe Weather on mobile